メインページ
METAR-TAF:

METAR-TAF

空港 :

カダラ空港

チタ, ロシア

緯度: 52-05N, 経度: 113-29E, 海抜: 685m

現時点の気象観測

当レポートは28分前の19:00(UTC)に作成
北/北東の風 10kt
気温 11°C
湿度 71%
気圧 1012 hPa
視程10km以上
高度5000ftの雲は散在している, 積乱雲.

METAR: UIAA 181900Z 02005MPS 9999 SCT050CB 11/06 Q1012 R29/CLRD70 NOSIG RMK QFE700/0934

時間: 04:28 (19:28 UTC)

予報

当レポートは2時間28分前の17:00(UTC)に作成
予報は18日の 18時(UTC)から 19日の 18時(UTC)まで有効
北/北東の風 12kt、最大23ktの突風を伴う
視程10km以上
高度4000ftの千切れ雲あり, 積乱雲.
18日の 18時(UTC)から 19日の 01時(UTC)まで一時的に
の風 6kt
視程: 3100m
19日の 06時(UTC)から 19日の 15時(UTC)まで一時的に
高度1400ftの曇り, 積乱雲.
弱いにわか雨

TAF: UIAA 181700Z 1818/1918 02006G12MPS 9999 BKN040CB TEMPO 1818/1901 08003MPS 3100 BR TEMPO 1906/1915 -SHRA OVC014CB

4,000以上の空港の気象観測と天気予報(METAR報とTAF報)

利用可能な観測所は地図上に黄色い丸と赤い丸で示す。

丸の上にカーソルを重ねると観測所名を参照できる。

次にクリックすると気象観測と天気予報を参照できる。

マップの切り替え:黒色「×」印の緑ボタンをクリックして拡大、「-」印の緑ボタンをクリックして縮小、緑色の三角印をクリックして隣りの地図に切り替え


METAR-TAF: